createdAt,value
2023-05-23T00:00:10.307Z,0.00
2023-05-23T00:01:10.316Z,0.00
2023-05-23T00:02:10.320Z,0.00
2023-05-23T00:03:10.381Z,0.00
2023-05-23T00:04:10.317Z,0.00
2023-05-23T00:05:10.322Z,0.00
2023-05-23T00:06:10.320Z,0.00
2023-05-23T00:07:10.311Z,0.00
2023-05-23T00:08:10.313Z,0.00
2023-05-23T00:09:10.273Z,0.00
2023-05-23T00:10:10.287Z,0.00
2023-05-23T00:11:10.283Z,0.00
2023-05-23T00:12:10.250Z,0.00
2023-05-23T00:13:10.247Z,0.00
2023-05-23T00:14:10.439Z,0.00
2023-05-23T00:15:10.254Z,0.00
2023-05-23T00:16:10.233Z,0.00
2023-05-23T00:17:10.291Z,0.00
2023-05-23T00:18:10.222Z,0.00
2023-05-23T00:19:10.253Z,0.00
2023-05-23T00:20:10.207Z,0.00
2023-05-23T00:21:10.205Z,0.00
2023-05-23T00:22:10.199Z,0.00
2023-05-23T00:23:10.265Z,0.00
2023-05-23T00:24:10.190Z,0.00
2023-05-23T00:25:10.189Z,0.00
2023-05-23T00:26:10.205Z,0.00
2023-05-23T00:27:10.175Z,0.00
2023-05-23T00:28:10.175Z,0.00
2023-05-23T00:29:10.178Z,0.00
2023-05-23T00:30:10.251Z,0.00
2023-05-23T00:31:10.175Z,0.00
2023-05-23T00:32:10.153Z,0.00
2023-05-23T00:33:10.150Z,0.00
2023-05-23T00:34:10.146Z,0.00
2023-05-23T00:35:10.148Z,0.00
2023-05-23T00:36:10.164Z,0.00
2023-05-23T00:37:10.128Z,0.00
2023-05-23T00:38:10.127Z,0.00
2023-05-23T00:39:10.119Z,0.00
2023-05-23T00:40:10.208Z,0.00
2023-05-23T00:41:10.111Z,0.00
2023-05-23T00:42:10.121Z,0.00
2023-05-23T00:43:10.100Z,0.00
2023-05-23T00:44:10.103Z,0.00
2023-05-23T00:45:10.101Z,0.00
2023-05-23T00:46:10.213Z,0.00
2023-05-23T00:47:10.089Z,0.00
2023-05-23T00:48:10.089Z,0.00
2023-05-23T00:49:10.080Z,0.00
2023-05-23T00:50:10.074Z,0.00
2023-05-23T00:51:10.080Z,0.00
2023-05-23T00:52:10.069Z,0.00
2023-05-23T00:53:10.068Z,0.00
2023-05-23T00:54:10.061Z,0.00
2023-05-23T00:55:10.058Z,0.00
2023-05-23T00:56:10.057Z,0.00
2023-05-23T00:57:10.062Z,0.00
2023-05-23T00:58:10.032Z,0.00
2023-05-23T00:59:10.033Z,0.00
2023-05-23T01:00:10.040Z,0.00
2023-05-23T01:01:10.046Z,0.00
2023-05-23T01:02:10.225Z,0.00
2023-05-23T01:03:10.143Z,0.00
2023-05-23T01:04:10.078Z,0.00
2023-05-23T01:05:10.002Z,0.00
2023-05-23T01:06:10.001Z,0.00
2023-05-23T01:07:09.997Z,0.00
2023-05-23T01:08:09.988Z,0.00
2023-05-23T01:09:09.999Z,0.00
2023-05-23T01:10:09.990Z,0.00
2023-05-23T01:11:09.977Z,0.00
2023-05-23T01:12:09.983Z,0.00
2023-05-23T01:13:09.964Z,0.00
2023-05-23T01:14:09.978Z,0.00
2023-05-23T01:15:09.974Z,0.00
2023-05-23T01:16:09.984Z,0.00
2023-05-23T01:17:09.938Z,0.00
2023-05-23T01:18:10.081Z,0.00
2023-05-23T01:19:09.997Z,0.00
2023-05-23T01:20:09.926Z,0.00
2023-05-23T01:21:09.926Z,0.00
2023-05-23T01:22:09.929Z,0.00
2023-05-23T01:23:09.915Z,0.00
2023-05-23T01:24:09.915Z,0.00
2023-05-23T01:25:09.898Z,0.00
2023-05-23T01:26:09.921Z,0.00
2023-05-23T01:27:09.888Z,0.00
2023-05-23T01:28:09.888Z,0.00
2023-05-23T01:29:09.887Z,0.00
2023-05-23T01:30:09.876Z,0.00
2023-05-23T01:31:09.876Z,0.00
2023-05-23T01:32:09.905Z,0.00
2023-05-23T01:33:09.916Z,0.00
2023-05-23T01:34:09.944Z,0.00
2023-05-23T01:35:09.854Z,0.00
2023-05-23T01:36:09.857Z,0.00
2023-05-23T01:37:09.853Z,0.00
2023-05-23T01:38:09.840Z,0.00
2023-05-23T01:39:09.840Z,0.00
2023-05-23T01:40:09.829Z,0.00
2023-05-23T01:41:09.830Z,0.00
2023-05-23T01:42:09.823Z,0.00
2023-05-23T01:43:09.812Z,0.00
2023-05-23T01:44:09.814Z,0.00
2023-05-23T01:45:09.826Z,0.00
2023-05-23T01:46:09.933Z,0.00
2023-05-23T01:47:09.791Z,0.00
2023-05-23T01:48:09.887Z,0.00
2023-05-23T01:49:09.788Z,0.00
2023-05-23T01:50:09.876Z,0.00
2023-05-23T01:51:09.793Z,0.00
2023-05-23T01:52:09.781Z,0.00
2023-05-23T01:53:09.765Z,0.00
2023-05-23T01:54:09.771Z,0.00
2023-05-23T01:55:09.798Z,0.00
2023-05-23T01:56:09.753Z,0.00
2023-05-23T01:57:09.754Z,0.00
2023-05-23T01:58:09.752Z,0.00
2023-05-23T01:59:09.748Z,0.00
2023-05-23T02:00:09.735Z,0.00
2023-05-23T02:01:09.751Z,0.00
2023-05-23T02:02:09.775Z,0.00
2023-05-23T02:03:09.761Z,0.00
2023-05-23T02:04:09.715Z,0.00
2023-05-23T02:05:09.718Z,0.00
2023-05-23T02:06:09.800Z,0.00
2023-05-23T02:07:09.700Z,0.00
2023-05-23T02:08:09.699Z,0.00
2023-05-23T02:09:09.690Z,0.00
2023-05-23T02:10:09.690Z,0.00
2023-05-23T02:11:09.679Z,0.00
2023-05-23T02:12:09.684Z,0.00
2023-05-23T02:13:09.671Z,0.00
2023-05-23T02:14:09.681Z,0.00
2023-05-23T02:15:09.678Z,0.00
2023-05-23T02:16:09.659Z,0.00
2023-05-23T02:17:09.682Z,0.00
2023-05-23T02:18:09.764Z,0.00
2023-05-23T02:19:09.682Z,0.00
2023-05-23T02:20:09.637Z,0.00
2023-05-23T02:21:09.642Z,0.00
2023-05-23T02:22:09.711Z,0.00
2023-05-23T02:23:09.632Z,0.00
2023-05-23T02:24:09.623Z,0.00
2023-05-23T02:25:09.630Z,0.00
2023-05-23T02:26:09.613Z,0.00
2023-05-23T02:27:09.607Z,0.00
2023-05-23T02:28:09.601Z,0.00
2023-05-23T02:29:09.614Z,0.00
2023-05-23T02:30:09.593Z,0.00
2023-05-23T02:31:09.625Z,0.00
2023-05-23T02:32:09.584Z,0.00
2023-05-23T02:33:09.602Z,0.00
2023-05-23T02:34:09.575Z,0.00
2023-05-23T02:35:09.574Z,0.00
2023-05-23T02:36:09.553Z,0.00
2023-05-23T02:37:09.559Z,0.00
2023-05-23T02:38:09.636Z,0.00
2023-05-23T02:39:09.555Z,0.00
2023-05-23T02:40:09.557Z,0.00
2023-05-23T02:41:09.540Z,0.00
2023-05-23T02:42:09.532Z,0.00
2023-05-23T02:43:09.527Z,0.00
2023-05-23T02:44:09.525Z,0.00
2023-05-23T02:45:09.536Z,0.00
2023-05-23T02:46:09.531Z,0.00
2023-05-23T02:47:09.528Z,0.00
2023-05-23T02:48:09.504Z,0.00
2023-05-23T02:49:09.509Z,0.00
2023-05-23T02:50:09.503Z,0.00
2023-05-23T02:51:09.500Z,0.00
2023-05-23T02:52:09.487Z,0.00
2023-05-23T02:53:09.481Z,0.00
2023-05-23T02:54:09.578Z,0.00
2023-05-23T02:55:09.478Z,0.00
2023-05-23T02:56:09.471Z,0.00
2023-05-23T02:57:09.466Z,0.00
2023-05-23T02:58:09.459Z,0.00
2023-05-23T02:59:09.449Z,0.00
2023-05-23T03:00:09.444Z,0.00
2023-05-23T03:01:09.445Z,0.00
2023-05-23T03:02:09.549Z,0.00
2023-05-23T03:03:09.515Z,0.00
2023-05-23T03:04:09.444Z,0.00
2023-05-23T03:05:09.456Z,0.00
2023-05-23T03:06:09.427Z,0.00
2023-05-23T03:07:20.298Z,0.00
2023-05-23T03:08:09.419Z,0.00
2023-05-23T03:09:09.433Z,0.00
2023-05-23T03:10:09.532Z,0.00
2023-05-23T03:11:09.426Z,0.00
2023-05-23T03:12:09.419Z,0.00
2023-05-23T03:13:09.430Z,0.00
2023-05-23T03:14:09.417Z,0.00
2023-05-23T03:15:09.407Z,0.00
2023-05-23T03:16:09.416Z,0.00
2023-05-23T03:17:09.409Z,0.00
2023-05-23T03:18:09.417Z,0.00
2023-05-23T03:19:09.395Z,0.00
2023-05-23T03:20:09.377Z,0.00
2023-05-23T03:21:09.370Z,0.00
2023-05-23T03:22:09.381Z,0.00
2023-05-23T03:23:09.370Z,4.00
2023-05-23T03:24:09.356Z,4.00
2023-05-23T03:25:09.362Z,0.00
2023-05-23T03:26:09.454Z,0.00
2023-05-23T03:27:09.343Z,0.00
2023-05-23T03:28:09.341Z,0.00
2023-05-23T03:29:09.339Z,0.00
2023-05-23T03:30:09.334Z,0.00
2023-05-23T03:31:09.323Z,0.00
2023-05-23T03:32:09.338Z,4.00
2023-05-23T03:33:09.387Z,4.00
2023-05-23T03:34:09.305Z,4.00
2023-05-23T03:35:09.301Z,4.00
2023-05-23T03:36:09.296Z,4.00
2023-05-23T03:37:09.293Z,4.00
2023-05-23T03:38:09.284Z,8.00
2023-05-23T03:39:09.281Z,8.00
2023-05-23T03:40:09.292Z,8.00
2023-05-23T03:41:09.267Z,8.00
2023-05-23T03:42:09.381Z,12.00
2023-05-23T03:43:09.261Z,12.00
2023-05-23T03:44:09.264Z,12.00
2023-05-23T03:45:09.250Z,12.00
2023-05-23T03:46:09.271Z,16.00
2023-05-23T03:47:09.238Z,12.00
2023-05-23T03:48:09.236Z,12.00
2023-05-23T03:49:09.259Z,16.00
2023-05-23T03:50:09.235Z,16.00
2023-05-23T03:51:09.227Z,12.00
2023-05-23T03:52:09.215Z,16.00
2023-05-23T03:53:09.210Z,12.00
2023-05-23T03:54:09.210Z,12.00
2023-05-23T03:55:09.198Z,12.00
2023-05-23T03:56:09.205Z,16.00
2023-05-23T03:57:09.210Z,12.00
2023-05-23T03:58:09.286Z,12.00
2023-05-23T03:59:09.186Z,12.00
2023-05-23T04:00:09.176Z,12.00
2023-05-23T04:01:09.169Z,20.00
2023-05-23T04:02:09.233Z,16.00
2023-05-23T04:03:09.350Z,16.00
2023-05-23T04:04:09.186Z,16.00
2023-05-23T04:05:09.164Z,24.00
2023-05-23T04:06:09.143Z,16.00
2023-05-23T04:07:09.138Z,16.00
2023-05-23T04:08:09.131Z,24.00
2023-05-23T04:09:09.134Z,20.00
2023-05-23T04:10:09.126Z,28.00
2023-05-23T04:11:09.119Z,24.00
2023-05-23T04:12:09.110Z,28.00
2023-05-23T04:13:09.107Z,28.00
2023-05-23T04:14:09.210Z,24.00
2023-05-23T04:15:09.126Z,36.00
2023-05-23T04:16:09.145Z,28.00
2023-05-23T04:17:09.121Z,28.00
2023-05-23T04:18:09.158Z,24.00
2023-05-23T04:19:09.105Z,32.00
2023-05-23T04:20:09.070Z,28.00
2023-05-23T04:21:09.067Z,28.00
2023-05-23T04:22:09.044Z,24.00
2023-05-23T04:23:09.033Z,32.00
2023-05-23T04:24:09.021Z,36.00
2023-05-23T04:25:09.022Z,32.00
2023-05-23T04:26:09.004Z,48.00
2023-05-23T04:27:09.003Z,52.00
2023-05-23T04:28:09.001Z,44.00
2023-05-23T04:29:08.994Z,40.00
2023-05-23T04:30:09.080Z,44.00
2023-05-23T04:31:09.042Z,40.00
2023-05-23T04:32:08.975Z,36.00
2023-05-23T04:33:09.023Z,56.00
2023-05-23T04:34:08.973Z,60.00
2023-05-23T04:35:08.964Z,64.00
2023-05-23T04:36:08.954Z,68.00
2023-05-23T04:37:08.956Z,36.00
2023-05-23T04:38:09.003Z,48.00
2023-05-23T04:39:08.948Z,56.00
2023-05-23T04:40:08.949Z,48.00
2023-05-23T04:41:08.964Z,64.00
2023-05-23T04:42:08.929Z,88.00
2023-05-23T04:43:08.938Z,80.00
2023-05-23T04:44:08.921Z,84.00
2023-05-23T04:45:08.919Z,84.00
2023-05-23T04:46:08.999Z,76.00
2023-05-23T04:47:08.962Z,56.00
2023-05-23T04:48:08.953Z,60.00
2023-05-23T04:49:08.899Z,56.00
2023-05-23T04:50:08.882Z,52.00
2023-05-23T04:51:08.890Z,60.00
2023-05-23T04:52:08.888Z,68.00
2023-05-23T04:53:08.935Z,60.00
2023-05-23T04:54:08.865Z,56.00
2023-05-23T04:55:08.891Z,60.00
2023-05-23T04:56:08.857Z,52.00
2023-05-23T04:57:08.854Z,96.00
2023-05-23T04:58:08.854Z,96.00
2023-05-23T04:59:08.848Z,76.00
2023-05-23T05:00:08.839Z,76.00
2023-05-23T05:01:08.867Z,84.00
2023-05-23T05:02:08.908Z,104.00
2023-05-23T05:03:08.848Z,96.00
2023-05-23T05:04:08.911Z,80.00
2023-05-23T05:05:08.812Z,68.00
2023-05-23T05:06:08.808Z,60.00
2023-05-23T05:07:08.805Z,56.00
2023-05-23T05:08:08.787Z,64.00
2023-05-23T05:09:08.801Z,64.00
2023-05-23T05:10:08.787Z,104.00
2023-05-23T05:11:08.779Z,112.00
2023-05-23T05:12:08.776Z,100.00
2023-05-23T05:13:08.769Z,84.00
2023-05-23T05:14:08.770Z,80.00
2023-05-23T05:15:08.752Z,96.00
2023-05-23T05:16:08.752Z,84.00
2023-05-23T05:17:08.835Z,80.00
2023-05-23T05:18:08.850Z,100.00
2023-05-23T05:19:08.885Z,112.00
2023-05-23T05:20:08.758Z,112.00
2023-05-23T05:21:08.723Z,120.00
2023-05-23T05:22:08.724Z,96.00
2023-05-23T05:23:08.732Z,108.00
2023-05-23T05:24:08.705Z,124.00
2023-05-23T05:25:08.702Z,116.00
2023-05-23T05:26:08.757Z,100.00
2023-05-23T05:27:08.689Z,92.00
2023-05-23T05:28:08.690Z,96.00
2023-05-23T05:29:08.686Z,88.00
2023-05-23T05:30:08.684Z,112.00
2023-05-23T05:31:08.732Z,112.00
2023-05-23T05:32:08.672Z,96.00
2023-05-23T05:33:08.661Z,132.00
2023-05-23T05:34:08.741Z,156.00
2023-05-23T05:35:08.663Z,104.00
2023-05-23T05:36:08.664Z,148.00
2023-05-23T05:37:08.651Z,120.00
2023-05-23T05:38:08.666Z,108.00
2023-05-23T05:39:08.650Z,104.00
2023-05-23T05:40:08.648Z,152.00
2023-05-23T05:41:09.338Z,164.00
2023-05-23T05:42:08.631Z,124.00
2023-05-23T05:43:08.624Z,116.00
2023-05-23T05:44:08.613Z,128.00
2023-05-23T05:45:08.601Z,108.00
2023-05-23T05:46:08.618Z,112.00
2023-05-23T05:47:08.601Z,132.00
2023-05-23T05:48:08.692Z,120.00
2023-05-23T05:49:09.682Z,108.00
2023-05-23T05:50:08.671Z,148.00
2023-05-23T05:51:08.586Z,136.00
2023-05-23T05:52:08.569Z,168.00
2023-05-23T05:53:08.577Z,160.00
2023-05-23T05:54:08.555Z,168.00
2023-05-23T05:55:08.556Z,204.00
2023-05-23T05:56:08.555Z,244.00
2023-05-23T05:57:08.540Z,204.00
2023-05-23T05:58:08.552Z,240.00
2023-05-23T05:59:08.545Z,208.00
2023-05-23T06:00:08.535Z,292.00
2023-05-23T06:01:08.526Z,264.00
2023-05-23T06:02:08.539Z,244.00
2023-05-23T06:03:08.556Z,248.00
2023-05-23T06:04:08.763Z,296.00
2023-05-23T06:05:08.510Z,328.00
2023-05-23T06:06:08.590Z,348.00
2023-05-23T06:07:08.512Z,336.00
2023-05-23T06:08:08.537Z,324.00
2023-05-23T06:09:08.505Z,368.00
2023-05-23T06:10:08.497Z,320.00
2023-05-23T06:11:08.469Z,364.00
2023-05-23T06:12:08.482Z,356.00
2023-05-23T06:13:08.488Z,432.00
2023-05-23T06:14:08.471Z,408.00
2023-05-23T06:15:08.456Z,416.00
2023-05-23T06:16:08.541Z,376.00
2023-05-23T06:17:08.456Z,364.00
2023-05-23T06:18:08.487Z,268.00
2023-05-23T06:19:08.566Z,356.00
2023-05-23T06:20:08.440Z,344.00
2023-05-23T06:21:08.450Z,312.00
2023-05-23T06:22:08.516Z,404.00
2023-05-23T06:23:08.433Z,376.00
2023-05-23T06:24:08.420Z,324.00
2023-05-23T06:25:08.412Z,336.00
2023-05-23T06:26:08.405Z,320.00
2023-05-23T06:27:08.405Z,316.00
2023-05-23T06:28:08.398Z,292.00
2023-05-23T06:29:08.389Z,248.00
2023-05-23T06:30:08.381Z,264.00
2023-05-23T06:31:08.383Z,260.00
2023-05-23T06:32:08.489Z,288.00
2023-05-23T06:33:08.457Z,300.00
2023-05-23T06:34:08.360Z,288.00
2023-05-23T06:35:08.367Z,260.00
2023-05-23T06:36:08.351Z,244.00
2023-05-23T06:37:08.346Z,236.00
2023-05-23T06:38:08.429Z,236.00
2023-05-23T06:39:08.339Z,228.00
2023-05-23T06:40:08.332Z,256.00
2023-05-23T06:41:08.327Z,252.00
2023-05-23T06:42:08.323Z,204.00
2023-05-23T06:43:08.328Z,224.00
2023-05-23T06:44:08.316Z,264.00
2023-05-23T06:45:08.318Z,288.00
2023-05-23T06:46:08.340Z,296.00
2023-05-23T06:47:08.296Z,312.00
2023-05-23T06:48:08.291Z,308.00
2023-05-23T06:49:14.833Z,280.00
2023-05-23T06:50:08.285Z,284.00
2023-05-23T06:51:08.279Z,268.00
2023-05-23T06:52:08.283Z,272.00
2023-05-23T06:53:08.274Z,312.00
2023-05-23T06:54:08.260Z,352.00
2023-05-23T06:55:08.260Z,300.00
2023-05-23T06:56:08.254Z,320.00
2023-05-23T06:57:08.253Z,280.00
2023-05-23T06:58:08.240Z,308.00
2023-05-23T06:59:08.247Z,324.00
2023-05-23T07:00:08.227Z,316.00
2023-05-23T07:01:08.249Z,312.00
2023-05-23T07:02:08.224Z,280.00
2023-05-23T07:03:08.223Z,312.00
2023-05-23T07:04:08.210Z,356.00
2023-05-23T07:05:08.238Z,588.00
2023-05-23T07:06:08.201Z,592.00
2023-05-23T07:07:08.208Z,456.00
2023-05-23T07:08:08.192Z,528.00
2023-05-23T07:09:08.188Z,536.00
2023-05-23T07:10:08.278Z,672.00
2023-05-23T07:11:08.173Z,644.00
2023-05-23T07:12:08.174Z,668.00
2023-05-23T07:13:08.165Z,548.00
2023-05-23T07:14:08.200Z,548.00
2023-05-23T07:15:08.164Z,436.00
2023-05-23T07:16:08.150Z,408.00
2023-05-23T07:17:08.162Z,400.00
2023-05-23T07:18:08.213Z,408.00
2023-05-23T07:19:08.171Z,376.00
2023-05-23T07:20:08.124Z,392.00
2023-05-23T07:21:08.125Z,372.00
2023-05-23T07:22:08.118Z,408.00
2023-05-23T07:23:08.108Z,364.00
2023-05-23T07:24:08.111Z,332.00
2023-05-23T07:25:08.108Z,348.00
2023-05-23T07:26:08.100Z,340.00
2023-05-23T07:27:08.106Z,372.00
2023-05-23T07:28:08.092Z,404.00
2023-05-23T07:29:08.112Z,352.00
2023-05-23T07:30:08.078Z,420.00
2023-05-23T07:31:08.188Z,396.00
2023-05-23T07:32:08.079Z,328.00
2023-05-23T07:33:08.150Z,320.00
2023-05-23T07:34:08.056Z,372.00
2023-05-23T07:35:08.055Z,436.00
2023-05-23T07:36:08.057Z,492.00
2023-05-23T07:37:08.046Z,500.00
2023-05-23T07:38:08.045Z,504.00
2023-05-23T07:39:08.039Z,452.00
2023-05-23T07:40:08.022Z,464.00
2023-05-23T07:41:12.039Z,464.00
2023-05-23T07:42:08.027Z,444.00
2023-05-23T07:43:08.011Z,460.00
2023-05-23T07:44:08.011Z,484.00
2023-05-23T07:45:08.012Z,388.00
2023-05-23T07:46:08.095Z,496.00
2023-05-23T07:47:08.018Z,476.00
2023-05-23T07:48:08.063Z,636.00
2023-05-23T07:49:07.988Z,768.00
2023-05-23T07:50:08.005Z,788.00
2023-05-23T07:51:07.973Z,828.00
2023-05-23T07:52:07.980Z,776.00
2023-05-23T07:53:07.968Z,868.00
2023-05-23T07:54:07.962Z,720.00
2023-05-23T07:55:07.953Z,628.00
2023-05-23T07:56:07.947Z,628.00
2023-05-23T07:57:07.946Z,632.00
2023-05-23T07:58:07.933Z,700.00
2023-05-23T07:59:07.945Z,740.00
2023-05-23T08:00:07.928Z,752.00
2023-05-23T08:01:07.926Z,808.00
2023-05-23T08:02:07.979Z,976.00
2023-05-23T08:03:07.983Z,1060.00
2023-05-23T08:04:07.944Z,976.00
2023-05-23T08:05:07.900Z,908.00
2023-05-23T08:06:07.900Z,868.00
2023-05-23T08:07:07.890Z,1008.00
2023-05-23T08:08:07.902Z,896.00
2023-05-23T08:09:07.890Z,688.00
2023-05-23T08:10:07.880Z,644.00
2023-05-23T08:11:07.872Z,588.00
2023-05-23T08:12:07.868Z,504.00
2023-05-23T08:13:07.869Z,604.00
2023-05-23T08:14:07.864Z,552.00
2023-05-23T08:15:07.858Z,512.00
2023-05-23T08:16:07.896Z,556.00
2023-05-23T08:17:07.956Z,548.00
2023-05-23T08:18:07.973Z,544.00
2023-05-23T08:19:07.911Z,568.00
2023-05-23T08:20:08.937Z,612.00
2023-05-23T08:21:07.823Z,548.00
2023-05-23T08:22:07.823Z,804.00
2023-05-23T08:23:07.817Z,716.00
2023-05-23T08:24:07.816Z,916.00
2023-05-23T08:25:07.807Z,888.00
2023-05-23T08:26:07.800Z,936.00
2023-05-23T08:27:07.835Z,1040.00
2023-05-23T08:28:07.788Z,1072.00
2023-05-23T08:29:07.792Z,1032.00
2023-05-23T08:30:07.796Z,1088.00
2023-05-23T08:31:07.776Z,1192.00
2023-05-23T08:32:07.835Z,1004.00
2023-05-23T08:33:07.816Z,924.00
2023-05-23T08:34:07.776Z,900.00
2023-05-23T08:35:07.765Z,804.00
2023-05-23T08:36:07.751Z,776.00
2023-05-23T08:37:07.836Z,832.00
2023-05-23T08:38:07.853Z,664.00
2023-05-23T08:39:07.737Z,712.00
2023-05-23T08:40:07.751Z,820.00
2023-05-23T08:41:07.734Z,684.00
2023-05-23T08:42:07.748Z,892.00
2023-05-23T08:43:07.761Z,740.00
2023-05-23T08:44:07.711Z,656.00
2023-05-23T08:45:07.719Z,500.00
2023-05-23T08:46:07.754Z,588.00
2023-05-23T08:47:07.712Z,540.00
2023-05-23T08:48:07.881Z,592.00
2023-05-23T08:49:07.705Z,596.00
2023-05-23T08:50:07.685Z,720.00
2023-05-23T08:51:07.677Z,732.00
2023-05-23T08:52:07.674Z,752.00
2023-05-23T08:53:07.678Z,716.00
2023-05-23T08:54:07.683Z,632.00
2023-05-23T08:55:07.659Z,588.00
2023-05-23T08:56:07.669Z,604.00
2023-05-23T08:57:07.649Z,688.00
2023-05-23T08:58:07.651Z,592.00
2023-05-23T08:59:07.644Z,556.00
2023-05-23T09:00:07.638Z,656.00
2023-05-23T09:01:07.716Z,772.00
2023-05-23T09:02:07.630Z,556.00
2023-05-23T09:03:07.655Z,536.00
2023-05-23T09:04:07.630Z,532.00
2023-05-23T09:05:07.666Z,484.00
2023-05-23T09:06:07.633Z,640.00
2023-05-23T09:07:07.595Z,584.00
2023-05-23T09:08:07.596Z,608.00
2023-05-23T09:09:07.592Z,604.00
2023-05-23T09:10:07.587Z,640.00
2023-05-23T09:11:07.590Z,568.00
2023-05-23T09:12:07.581Z,512.00
2023-05-23T09:13:07.566Z,548.00
2023-05-23T09:14:07.559Z,564.00
2023-05-23T09:15:07.552Z,904.00
2023-05-23T09:16:07.569Z,924.00
2023-05-23T09:17:07.547Z,756.00
2023-05-23T09:18:07.589Z,808.00
2023-05-23T09:19:07.570Z,668.00
2023-05-23T09:20:07.529Z,848.00
2023-05-23T09:21:07.522Z,1160.00
2023-05-23T09:22:07.533Z,1296.00
2023-05-23T09:23:07.521Z,1024.00
2023-05-23T09:24:07.514Z,764.00
2023-05-23T09:25:07.511Z,612.00
2023-05-23T09:26:07.556Z,528.00
2023-05-23T09:27:07.507Z,440.00
2023-05-23T09:28:07.497Z,376.00
2023-05-23T09:29:07.511Z,396.00
2023-05-23T09:30:07.477Z,356.00
2023-05-23T09:31:07.500Z,344.00
2023-05-23T09:32:07.482Z,352.00
2023-05-23T09:33:07.497Z,360.00
2023-05-23T09:34:07.499Z,344.00
2023-05-23T09:35:07.466Z,348.00
2023-05-23T09:36:07.462Z,336.00
2023-05-23T09:37:07.455Z,380.00
2023-05-23T09:38:07.450Z,372.00
2023-05-23T09:39:07.441Z,316.00
2023-05-23T09:40:07.527Z,264.00
2023-05-23T09:41:07.429Z,308.00
2023-05-23T09:42:07.420Z,356.00
2023-05-23T09:43:07.425Z,300.00
2023-05-23T09:44:07.440Z,228.00
2023-05-23T09:45:07.420Z,212.00
2023-05-23T09:46:07.406Z,336.00
2023-05-23T09:47:07.507Z,484.00
2023-05-23T09:48:07.488Z,380.00
2023-05-23T09:49:07.396Z,464.00
2023-05-23T09:50:07.449Z,604.00
2023-05-23T09:51:07.384Z,600.00
2023-05-23T09:52:07.407Z,616.00
2023-05-23T09:53:07.370Z,684.00
2023-05-23T09:54:07.372Z,816.00
2023-05-23T09:55:07.361Z,744.00
2023-05-23T09:56:07.363Z,816.00
2023-05-23T09:57:08.936Z,808.00
2023-05-23T09:58:07.336Z,844.00
2023-05-23T09:59:07.349Z,780.00
2023-05-23T10:00:07.345Z,848.00
2023-05-23T10:01:07.351Z,968.00
2023-05-23T10:02:07.328Z,952.00
2023-05-23T10:03:07.359Z,1088.00
2023-05-23T10:04:07.349Z,1196.00
2023-05-23T10:05:07.306Z,1368.00
2023-05-23T10:06:07.324Z,1412.00
2023-05-23T10:07:07.318Z,1404.00
2023-05-23T10:08:07.297Z,1364.00
2023-05-23T10:09:07.297Z,1360.00
2023-05-23T10:10:07.283Z,1456.00
2023-05-23T10:11:07.282Z,1148.00
2023-05-23T10:12:07.287Z,808.00
2023-05-23T10:13:07.278Z,868.00
2023-05-23T10:14:07.261Z,1264.00
2023-05-23T10:15:07.295Z,1624.00
2023-05-23T10:16:07.252Z,1000.00
2023-05-23T10:17:07.269Z,572.00
2023-05-23T10:18:07.266Z,672.00
2023-05-23T10:19:07.276Z,892.00
2023-05-23T10:20:07.237Z,920.00
2023-05-23T10:21:07.232Z,1348.00
2023-05-23T10:22:07.233Z,1684.00
2023-05-23T10:23:07.229Z,1648.00
2023-05-23T10:24:07.237Z,1672.00
2023-05-23T10:25:07.225Z,1616.00
2023-05-23T10:26:07.208Z,1640.00
2023-05-23T10:27:07.196Z,1560.00
2023-05-23T10:28:07.206Z,1556.00
2023-05-23T10:29:07.187Z,1188.00
2023-05-23T10:30:07.188Z,944.00
2023-05-23T10:31:07.188Z,868.00
2023-05-23T10:32:07.183Z,820.00
2023-05-23T10:33:07.197Z,828.00
2023-05-23T10:34:07.177Z,872.00
2023-05-23T10:35:07.154Z,896.00
2023-05-23T10:36:07.187Z,860.00
2023-05-23T10:37:07.138Z,604.00
2023-05-23T10:38:07.150Z,684.00
2023-05-23T10:39:07.141Z,944.00
2023-05-23T10:40:07.149Z,1008.00
2023-05-23T10:41:07.119Z,864.00
2023-05-23T10:42:07.137Z,664.00
2023-05-23T10:43:07.116Z,608.00
2023-05-23T10:44:07.118Z,644.00
2023-05-23T10:45:07.101Z,764.00
2023-05-23T10:46:07.233Z,1048.00
2023-05-23T10:47:07.136Z,1272.00
2023-05-23T10:48:07.199Z,1516.00
2023-05-23T10:49:07.081Z,1516.00
2023-05-23T10:50:07.079Z,1596.00
2023-05-23T10:51:07.090Z,1688.00
2023-05-23T10:52:07.063Z,1920.00
2023-05-23T10:53:07.082Z,1596.00
2023-05-23T10:54:07.056Z,1640.00
2023-05-23T10:55:07.059Z,1620.00
2023-05-23T10:56:07.050Z,1516.00
2023-05-23T10:57:07.049Z,1476.00
2023-05-23T10:58:07.039Z,1444.00
2023-05-23T10:59:07.039Z,1460.00
2023-05-23T11:00:07.027Z,2240.00
2023-05-23T11:01:07.034Z,2648.00
2023-05-23T11:02:07.059Z,2848.00
2023-05-23T11:03:07.089Z,3132.00
2023-05-23T11:04:07.055Z,3500.00
2023-05-23T11:05:07.000Z,3772.00
2023-05-23T11:06:07.022Z,4308.00
2023-05-23T11:07:06.992Z,3576.00
2023-05-23T11:08:06.987Z,3672.00
2023-05-23T11:09:07.901Z,2808.00
2023-05-23T11:10:07.112Z,2480.00
2023-05-23T11:11:06.970Z,1904.00
2023-05-23T11:12:06.974Z,2420.00
2023-05-23T11:13:06.970Z,2404.00
2023-05-23T11:14:06.956Z,2380.00
2023-05-23T11:15:06.957Z,2884.00
2023-05-23T11:16:06.975Z,2632.00
2023-05-23T11:17:06.939Z,2628.00
2023-05-23T11:18:06.998Z,2724.00
2023-05-23T11:19:06.996Z,1836.00
2023-05-23T11:20:07.014Z,1912.00
2023-05-23T11:21:06.931Z,2648.00
2023-05-23T11:22:06.918Z,3696.00
2023-05-23T11:23:06.920Z,6160.00
2023-05-23T11:24:06.917Z,5156.00
2023-05-23T11:25:06.914Z,4844.00
2023-05-23T11:26:06.910Z,5092.00
2023-05-23T11:27:06.903Z,4212.00
2023-05-23T11:28:06.893Z,2636.00
2023-05-23T11:29:06.890Z,2396.00
2023-05-23T11:30:06.883Z,2132.00
2023-05-23T11:31:06.883Z,1632.00
2023-05-23T11:32:08.824Z,1424.00
2023-05-23T11:33:06.884Z,1500.00
2023-05-23T11:34:06.890Z,1748.00
2023-05-23T11:35:06.863Z,2328.00
2023-05-23T11:36:06.862Z,2808.00
2023-05-23T11:37:06.851Z,2880.00
2023-05-23T11:38:06.860Z,3536.00
2023-05-23T11:39:06.882Z,4260.00
2023-05-23T11:40:06.849Z,2880.00
2023-05-23T11:41:06.847Z,3616.00
2023-05-23T11:42:06.841Z,3276.00
2023-05-23T11:43:06.836Z,2172.00
2023-05-23T11:44:06.831Z,2000.00
2023-05-23T11:45:06.830Z,1656.00
2023-05-23T11:46:06.852Z,1964.00
2023-05-23T11:47:06.897Z,2176.00
2023-05-23T11:48:06.818Z,2388.00
2023-05-23T11:49:06.810Z,2600.00
2023-05-23T11:50:06.801Z,2780.00
2023-05-23T11:51:06.797Z,3644.00
2023-05-23T11:52:06.796Z,3752.00
2023-05-23T11:53:06.799Z,4388.00
2023-05-23T11:54:06.793Z,3432.00
2023-05-23T11:55:06.794Z,3032.00
2023-05-23T11:56:06.773Z,2936.00
2023-05-23T11:57:06.778Z,3020.00
2023-05-23T11:58:06.763Z,3164.00
2023-05-23T11:59:06.778Z,3580.00
2023-05-23T12:00:06.752Z,3604.00
2023-05-23T12:01:06.755Z,3524.00
2023-05-23T12:02:06.801Z,3224.00
2023-05-23T12:03:06.792Z,3328.00
2023-05-23T12:04:06.749Z,3272.00
2023-05-23T12:05:06.732Z,3532.00
2023-05-23T12:06:06.734Z,3504.00
2023-05-23T12:07:06.804Z,3572.00
2023-05-23T12:08:06.731Z,3732.00
2023-05-23T12:09:06.706Z,3964.00
2023-05-23T12:10:06.721Z,3976.00
2023-05-23T12:11:06.727Z,3816.00
2023-05-23T12:12:06.706Z,3456.00
2023-05-23T12:13:06.709Z,4404.00
2023-05-23T12:14:06.692Z,4028.00
2023-05-23T12:15:06.682Z,3060.00
2023-05-23T12:16:06.765Z,4440.00
2023-05-23T12:17:06.680Z,4136.00
2023-05-23T12:18:07.210Z,3940.00
2023-05-23T12:19:06.829Z,3580.00
2023-05-23T12:20:06.670Z,3280.00
2023-05-23T12:21:06.725Z,3280.00
2023-05-23T12:22:06.677Z,3220.00
2023-05-23T12:23:06.668Z,3104.00
2023-05-23T12:24:06.653Z,3004.00
2023-05-23T12:25:06.646Z,2900.00
2023-05-23T12:26:06.674Z,2700.00
2023-05-23T12:27:06.630Z,2444.00
2023-05-23T12:28:06.640Z,2316.00
2023-05-23T12:29:06.648Z,2256.00
2023-05-23T12:30:06.634Z,2028.00
2023-05-23T12:31:06.636Z,1804.00
2023-05-23T12:32:06.619Z,1772.00
2023-05-23T12:33:06.684Z,1872.00
2023-05-23T12:34:06.628Z,2024.00
2023-05-23T12:35:06.612Z,1976.00
2023-05-23T12:36:06.599Z,2508.00
2023-05-23T12:37:18.910Z,2812.00
2023-05-23T12:38:06.594Z,3152.00
2023-05-23T12:39:06.612Z,3668.00
2023-05-23T12:40:06.594Z,3876.00